sensor_id;sensor_type;location;lat;lon;timestamp;temperature;humidity
40960;DHT22;27842;52.272;8.052;2023-04-03T00:02:19;6.10;92.70
40960;DHT22;27842;52.272;8.052;2023-04-03T00:04:45;6.00;92.70
40960;DHT22;27842;52.272;8.052;2023-04-03T00:07:11;6.00;92.60
40960;DHT22;27842;52.272;8.052;2023-04-03T00:09:37;6.00;92.50
40960;DHT22;27842;52.272;8.052;2023-04-03T00:12:03;6.00;92.40
40960;DHT22;27842;52.272;8.052;2023-04-03T00:14:29;5.90;92.20
40960;DHT22;27842;52.272;8.052;2023-04-03T00:16:54;5.90;92.20
40960;DHT22;27842;52.272;8.052;2023-04-03T00:19:20;5.90;91.90
40960;DHT22;27842;52.272;8.052;2023-04-03T00:21:46;5.90;91.90
40960;DHT22;27842;52.272;8.052;2023-04-03T00:24:11;5.90;91.70
40960;DHT22;27842;52.272;8.052;2023-04-03T00:26:37;5.80;91.60
40960;DHT22;27842;52.272;8.052;2023-04-03T00:29:02;5.80;91.60
40960;DHT22;27842;52.272;8.052;2023-04-03T00:31:28;5.70;91.50
40960;DHT22;27842;52.272;8.052;2023-04-03T00:33:54;5.80;91.40
40960;DHT22;27842;52.272;8.052;2023-04-03T00:36:19;5.70;91.60
40960;DHT22;27842;52.272;8.052;2023-04-03T00:38:45;5.60;91.60
40960;DHT22;27842;52.272;8.052;2023-04-03T00:41:11;5.50;91.70
40960;DHT22;27842;52.272;8.052;2023-04-03T00:43:36;5.60;91.70
40960;DHT22;27842;52.272;8.052;2023-04-03T00:46:02;5.60;91.80
40960;DHT22;27842;52.272;8.052;2023-04-03T00:48:53;5.60;91.70
40960;DHT22;27842;52.272;8.052;2023-04-03T00:51:23;5.50;91.70
40960;DHT22;27842;52.272;8.052;2023-04-03T00:53:53;5.50;91.80
40960;DHT22;27842;52.272;8.052;2023-04-03T00:56:23;5.40;91.90
40960;DHT22;27842;52.272;8.052;2023-04-03T00:58:53;5.40;91.90
40960;DHT22;27842;52.272;8.052;2023-04-03T01:01:24;5.40;91.80
40960;DHT22;27842;52.272;8.052;2023-04-03T01:03:50;5.30;91.60
40960;DHT22;27842;52.272;8.052;2023-04-03T01:06:17;5.30;91.60
40960;DHT22;27842;52.272;8.052;2023-04-03T01:08:49;5.20;91.70
40960;DHT22;27842;52.272;8.052;2023-04-03T01:11:15;5.20;91.80
40960;DHT22;27842;52.272;8.052;2023-04-03T01:13:41;5.20;91.70
40960;DHT22;27842;52.272;8.052;2023-04-03T01:16:07;5.20;91.80
40960;DHT22;27842;52.272;8.052;2023-04-03T01:18:34;5.10;91.80
40960;DHT22;27842;52.272;8.052;2023-04-03T01:26:21;5.10;91.80
40960;DHT22;27842;52.272;8.052;2023-04-03T01:28:47;5.00;91.90
40960;DHT22;27842;52.272;8.052;2023-04-03T01:33:52;5.00;92.10
40960;DHT22;27842;52.272;8.052;2023-04-03T01:36:21;5.00;92.10
40960;DHT22;27842;52.272;8.052;2023-04-03T01:38:48;5.00;92.00
40960;DHT22;27842;52.272;8.052;2023-04-03T01:41:14;5.00;92.10
40960;DHT22;27842;52.272;8.052;2023-04-03T01:43:40;5.00;92.10
40960;DHT22;27842;52.272;8.052;2023-04-03T01:46:06;4.90;92.10
40960;DHT22;27842;52.272;8.052;2023-04-03T01:48:45;5.00;92.10
40960;DHT22;27842;52.272;8.052;2023-04-03T01:51:11;4.90;92.10
40960;DHT22;27842;52.272;8.052;2023-04-03T01:53:36;4.90;92.10
40960;DHT22;27842;52.272;8.052;2023-04-03T01:56:03;4.90;92.10
40960;DHT22;27842;52.272;8.052;2023-04-03T01:58:28;4.90;92.10
40960;DHT22;27842;52.272;8.052;2023-04-03T02:00:54;4.90;92.10
40960;DHT22;27842;52.272;8.052;2023-04-03T02:03:20;4.90;92.00
40960;DHT22;27842;52.272;8.052;2023-04-03T02:05:46;4.90;92.00
40960;DHT22;27842;52.272;8.052;2023-04-03T02:08:11;4.80;91.90
40960;DHT22;27842;52.272;8.052;2023-04-03T02:10:38;4.80;91.90
40960;DHT22;27842;52.272;8.052;2023-04-03T02:13:04;4.80;91.90
40960;DHT22;27842;52.272;8.052;2023-04-03T02:15:30;4.80;91.90
40960;DHT22;27842;52.272;8.052;2023-04-03T02:17:56;4.70;91.90
40960;DHT22;27842;52.272;8.052;2023-04-03T02:20:22;4.70;92.00
40960;DHT22;27842;52.272;8.052;2023-04-03T02:22:47;4.70;92.00
40960;DHT22;27842;52.272;8.052;2023-04-03T02:25:13;4.60;92.00
40960;DHT22;27842;52.272;8.052;2023-04-03T02:27:39;4.60;92.20
40960;DHT22;27842;52.272;8.052;2023-04-03T02:30:05;4.50;92.10
40960;DHT22;27842;52.272;8.052;2023-04-03T02:32:32;4.50;92.30
40960;DHT22;27842;52.272;8.052;2023-04-03T02:34:58;4.50;92.40
40960;DHT22;27842;52.272;8.052;2023-04-03T02:37:23;4.50;92.10
40960;DHT22;27842;52.272;8.052;2023-04-03T02:39:50;4.50;92.10
40960;DHT22;27842;52.272;8.052;2023-04-03T02:42:15;4.50;92.10
40960;DHT22;27842;52.272;8.052;2023-04-03T02:44:41;4.40;92.20
40960;DHT22;27842;52.272;8.052;2023-04-03T02:47:07;4.40;92.10
40960;DHT22;27842;52.272;8.052;2023-04-03T02:49:38;4.40;92.20
40960;DHT22;27842;52.272;8.052;2023-04-03T02:52:04;4.40;92.20
40960;DHT22;27842;52.272;8.052;2023-04-03T02:54:30;4.40;92.10
40960;DHT22;27842;52.272;8.052;2023-04-03T02:56:56;4.30;92.10
40960;DHT22;27842;52.272;8.052;2023-04-03T02:59:22;4.30;92.00
40960;DHT22;27842;52.272;8.052;2023-04-03T03:01:48;4.30;92.00
40960;DHT22;27842;52.272;8.052;2023-04-03T03:04:13;4.30;92.10
40960;DHT22;27842;52.272;8.052;2023-04-03T03:06:39;4.20;92.20
40960;DHT22;27842;52.272;8.052;2023-04-03T03:09:05;4.10;92.30
40960;DHT22;27842;52.272;8.052;2023-04-03T03:11:31;4.20;92.40
40960;DHT22;27842;52.272;8.052;2023-04-03T03:13:56;4.20;92.30
40960;DHT22;27842;52.272;8.052;2023-04-03T03:16:22;4.10;92.30
40960;DHT22;27842;52.272;8.052;2023-04-03T03:19:00;4.20;92.30
40960;DHT22;27842;52.272;8.052;2023-04-03T03:21:26;4.20;92.20
40960;DHT22;27842;52.272;8.052;2023-04-03T03:23:51;4.10;92.20
40960;DHT22;27842;52.272;8.052;2023-04-03T03:26:17;4.10;92.20
40960;DHT22;27842;52.272;8.052;2023-04-03T03:28:43;4.10;92.10
40960;DHT22;27842;52.272;8.052;2023-04-03T03:31:09;4.10;92.10
40960;DHT22;27842;52.272;8.052;2023-04-03T03:33:35;4.00;92.20
40960;DHT22;27842;52.272;8.052;2023-04-03T03:36:01;4.00;92.20
40960;DHT22;27842;52.272;8.052;2023-04-03T03:38:27;4.10;92.30
40960;DHT22;27842;52.272;8.052;2023-04-03T03:40:52;4.10;92.00
40960;DHT22;27842;52.272;8.052;2023-04-03T03:43:18;4.10;91.90
40960;DHT22;27842;52.272;8.052;2023-04-03T03:45:44;4.10;91.90
40960;DHT22;27842;52.272;8.052;2023-04-03T03:48:11;4.00;92.00
40960;DHT22;27842;52.272;8.052;2023-04-03T03:50:37;4.00;92.00
40960;DHT22;27842;52.272;8.052;2023-04-03T03:53:02;3.90;92.10
40960;DHT22;27842;52.272;8.052;2023-04-03T03:55:28;3.90;92.10
40960;DHT22;27842;52.272;8.052;2023-04-03T03:57:53;3.90;92.20
40960;DHT22;27842;52.272;8.052;2023-04-03T04:00:19;3.90;92.20
40960;DHT22;27842;52.272;8.052;2023-04-03T04:02:45;3.90;92.20
40960;DHT22;27842;52.272;8.052;2023-04-03T04:05:11;3.90;92.30
40960;DHT22;27842;52.272;8.052;2023-04-03T04:07:37;3.80;92.40
40960;DHT22;27842;52.272;8.052;2023-04-03T04:10:03;3.80;92.40
40960;DHT22;27842;52.272;8.052;2023-04-03T04:12:29;3.80;92.50
40960;DHT22;27842;52.272;8.052;2023-04-03T04:14:54;3.70;92.60
40960;DHT22;27842;52.272;8.052;2023-04-03T04:17:21;3.70;92.60
40960;DHT22;27842;52.272;8.052;2023-04-03T04:19:50;3.70;92.70
40960;DHT22;27842;52.272;8.052;2023-04-03T04:22:15;3.70;92.70
40960;DHT22;27842;52.272;8.052;2023-04-03T04:24:41;3.60;92.80
40960;DHT22;27842;52.272;8.052;2023-04-03T04:27:07;3.70;92.80
40960;DHT22;27842;52.272;8.052;2023-04-03T04:29:32;3.60;92.90
40960;DHT22;27842;52.272;8.052;2023-04-03T04:32:02;3.50;93.00
40960;DHT22;27842;52.272;8.052;2023-04-03T04:34:28;3.50;93.10
40960;DHT22;27842;52.272;8.052;2023-04-03T04:36:53;3.50;93.10
40960;DHT22;27842;52.272;8.052;2023-04-03T04:39:19;3.50;93.10
40960;DHT22;27842;52.272;8.052;2023-04-03T04:41:45;3.50;93.10
40960;DHT22;27842;52.272;8.052;2023-04-03T04:44:10;3.40;93.10
40960;DHT22;27842;52.272;8.052;2023-04-03T04:46:36;3.40;93.20
40960;DHT22;27842;52.272;8.052;2023-04-03T04:49:02;3.40;93.30
40960;DHT22;27842;52.272;8.052;2023-04-03T04:51:27;3.40;93.20
40960;DHT22;27842;52.272;8.052;2023-04-03T04:53:53;3.30;93.30
40960;DHT22;27842;52.272;8.052;2023-04-03T04:56:18;3.40;93.20
40960;DHT22;27842;52.272;8.052;2023-04-03T04:58:44;3.40;93.20
40960;DHT22;27842;52.272;8.052;2023-04-03T05:01:11;3.30;93.30
40960;DHT22;27842;52.272;8.052;2023-04-03T05:03:37;3.30;93.30
40960;DHT22;27842;52.272;8.052;2023-04-03T05:06:05;3.40;93.20
40960;DHT22;27842;52.272;8.052;2023-04-03T05:08:31;3.30;93.30
40960;DHT22;27842;52.272;8.052;2023-04-03T05:10:57;3.30;93.30
40960;DHT22;27842;52.272;8.052;2023-04-03T05:13:23;3.20;93.40
40960;DHT22;27842;52.272;8.052;2023-04-03T05:15:49;3.20;93.30
40960;DHT22;27842;52.272;8.052;2023-04-03T05:18:14;3.30;93.40
40960;DHT22;27842;52.272;8.052;2023-04-03T05:20:40;3.30;93.40
40960;DHT22;27842;52.272;8.052;2023-04-03T05:23:06;3.30;93.30
40960;DHT22;27842;52.272;8.052;2023-04-03T05:25:31;3.30;93.30
40960;DHT22;27842;52.272;8.052;2023-04-03T05:27:57;3.20;93.30
40960;DHT22;27842;52.272;8.052;2023-04-03T05:30:23;3.20;93.30
40960;DHT22;27842;52.272;8.052;2023-04-03T05:32:49;3.10;93.40
40960;DHT22;27842;52.272;8.052;2023-04-03T05:35:15;3.10;93.40
40960;DHT22;27842;52.272;8.052;2023-04-03T05:37:40;3.10;93.50
40960;DHT22;27842;52.272;8.052;2023-04-03T05:40:07;3.10;93.60
40960;DHT22;27842;52.272;8.052;2023-04-03T05:42:33;3.10;93.60
40960;DHT22;27842;52.272;8.052;2023-04-03T05:45:00;3.10;93.50
40960;DHT22;27842;52.272;8.052;2023-04-03T05:47:25;3.10;93.50
40960;DHT22;27842;52.272;8.052;2023-04-03T05:49:51;3.10;93.50
40960;DHT22;27842;52.272;8.052;2023-04-03T05:52:25;3.10;93.50
40960;DHT22;27842;52.272;8.052;2023-04-03T05:54:51;3.10;93.50
40960;DHT22;27842;52.272;8.052;2023-04-03T05:57:17;3.20;93.40
40960;DHT22;27842;52.272;8.052;2023-04-03T05:59:44;3.20;93.40
40960;DHT22;27842;52.272;8.052;2023-04-03T06:02:16;3.20;93.40
40960;DHT22;27842;52.272;8.052;2023-04-03T06:04:42;3.20;93.30
40960;DHT22;27842;52.272;8.052;2023-04-03T06:07:14;3.20;93.40
40960;DHT22;27842;52.272;8.052;2023-04-03T06:09:41;3.20;93.50
40960;DHT22;27842;52.272;8.052;2023-04-03T06:12:07;3.20;93.50
40960;DHT22;27842;52.272;8.052;2023-04-03T06:14:33;3.10;93.50
40960;DHT22;27842;52.272;8.052;2023-04-03T06:19:33;3.10;93.60
40960;DHT22;27842;52.272;8.052;2023-04-03T06:21:59;3.10;93.80
40960;DHT22;27842;52.272;8.052;2023-04-03T06:24:26;3.30;93.70
40960;DHT22;27842;52.272;8.052;2023-04-03T06:26:53;3.30;93.80
40960;DHT22;27842;52.272;8.052;2023-04-03T06:29:19;3.30;93.70
40960;DHT22;27842;52.272;8.052;2023-04-03T06:31:46;3.40;93.80
40960;DHT22;27842;52.272;8.052;2023-04-03T06:34:12;3.50;93.40
40960;DHT22;27842;52.272;8.052;2023-04-03T06:36:38;3.40;93.30
40960;DHT22;27842;52.272;8.052;2023-04-03T06:39:05;3.30;93.40
40960;DHT22;27842;52.272;8.052;2023-04-03T06:41:31;3.40;93.50
40960;DHT22;27842;52.272;8.052;2023-04-03T06:43:56;3.40;93.50
40960;DHT22;27842;52.272;8.052;2023-04-03T06:46:25;3.50;93.40
40960;DHT22;27842;52.272;8.052;2023-04-03T06:48:54;3.40;93.40
40960;DHT22;27842;52.272;8.052;2023-04-03T06:51:27;3.50;93.40
40960;DHT22;27842;52.272;8.052;2023-04-03T06:53:55;3.50;93.20
40960;DHT22;27842;52.272;8.052;2023-04-03T06:56:22;3.50;93.30
40960;DHT22;27842;52.272;8.052;2023-04-03T06:58:48;3.60;93.20
40960;DHT22;27842;52.272;8.052;2023-04-03T07:01:16;3.60;93.00
40960;DHT22;27842;52.272;8.052;2023-04-03T07:03:43;3.60;93.00
40960;DHT22;27842;52.272;8.052;2023-04-03T07:06:11;3.70;93.20
40960;DHT22;27842;52.272;8.052;2023-04-03T07:08:37;3.70;93.10
40960;DHT22;27842;52.272;8.052;2023-04-03T07:11:05;4.00;92.70
40960;DHT22;27842;52.272;8.052;2023-04-03T07:13:31;4.00;92.30
40960;DHT22;27842;52.272;8.052;2023-04-03T07:15:58;4.10;92.40
40960;DHT22;27842;52.272;8.052;2023-04-03T07:18:24;4.20;91.80
40960;DHT22;27842;52.272;8.052;2023-04-03T07:20:50;4.30;91.80
40960;DHT22;27842;52.272;8.052;2023-04-03T07:23:16;4.50;91.70
40960;DHT22;27842;52.272;8.052;2023-04-03T07:25:47;4.60;91.50
40960;DHT22;27842;52.272;8.052;2023-04-03T07:28:13;4.80;91.20
40960;DHT22;27842;52.272;8.052;2023-04-03T07:30:47;5.00;90.80
40960;DHT22;27842;52.272;8.052;2023-04-03T07:33:15;5.10;90.50
40960;DHT22;27842;52.272;8.052;2023-04-03T07:35:42;5.30;90.20
40960;DHT22;27842;52.272;8.052;2023-04-03T07:38:08;5.30;90.00
40960;DHT22;27842;52.272;8.052;2023-04-03T07:40:34;5.40;89.90
40960;DHT22;27842;52.272;8.052;2023-04-03T07:43:00;5.50;89.70
40960;DHT22;27842;52.272;8.052;2023-04-03T07:45:26;5.60;89.20
40960;DHT22;27842;52.272;8.052;2023-04-03T07:47:52;5.70;88.20
40960;DHT22;27842;52.272;8.052;2023-04-03T07:50:18;5.80;88.40
40960;DHT22;27842;52.272;8.052;2023-04-03T07:52:45;5.90;87.70
40960;DHT22;27842;52.272;8.052;2023-04-03T07:55:11;6.10;86.60
40960;DHT22;27842;52.272;8.052;2023-04-03T07:57:36;6.10;86.70
40960;DHT22;27842;52.272;8.052;2023-04-03T08:00:04;6.20;86.00
40960;DHT22;27842;52.272;8.052;2023-04-03T08:02:36;6.30;85.90
40960;DHT22;27842;52.272;8.052;2023-04-03T08:05:02;6.40;84.80
40960;DHT22;27842;52.272;8.052;2023-04-03T08:07:28;6.40;84.10
40960;DHT22;27842;52.272;8.052;2023-04-03T08:09:54;6.40;83.00
40960;DHT22;27842;52.272;8.052;2023-04-03T08:12:20;6.40;83.40
40960;DHT22;27842;52.272;8.052;2023-04-03T08:14:46;6.40;82.50
40960;DHT22;27842;52.272;8.052;2023-04-03T08:17:12;6.40;82.40
40960;DHT22;27842;52.272;8.052;2023-04-03T08:19:39;6.40;81.00
40960;DHT22;27842;52.272;8.052;2023-04-03T08:22:05;6.40;81.00
40960;DHT22;27842;52.272;8.052;2023-04-03T08:24:31;6.30;80.70
40960;DHT22;27842;52.272;8.052;2023-04-03T08:26:57;6.30;81.00
40960;DHT22;27842;52.272;8.052;2023-04-03T08:29:24;6.20;81.40
40960;DHT22;27842;52.272;8.052;2023-04-03T08:31:50;6.30;81.70
40960;DHT22;27842;52.272;8.052;2023-04-03T08:34:16;6.30;82.00
40960;DHT22;27842;52.272;8.052;2023-04-03T08:36:42;6.40;80.90
40960;DHT22;27842;52.272;8.052;2023-04-03T08:39:08;6.40;81.00
40960;DHT22;27842;52.272;8.052;2023-04-03T08:41:43;6.40;80.20
40960;DHT22;27842;52.272;8.052;2023-04-03T08:49:37;6.70;78.80
40960;DHT22;27842;52.272;8.052;2023-04-03T08:52:10;6.80;78.60
40960;DHT22;27842;52.272;8.052;2023-04-03T08:57:12;6.90;78.40
40960;DHT22;27842;52.272;8.052;2023-04-03T08:59:38;6.90;78.30
40960;DHT22;27842;52.272;8.052;2023-04-03T09:02:31;7.00;78.70
40960;DHT22;27842;52.272;8.052;2023-04-03T09:04:58;7.10;78.30
40960;DHT22;27842;52.272;8.052;2023-04-03T09:07:33;7.20;78.60
40960;DHT22;27842;52.272;8.052;2023-04-03T09:10:02;7.20;78.30
40960;DHT22;27842;52.272;8.052;2023-04-03T09:12:37;7.30;78.70
40960;DHT22;27842;52.272;8.052;2023-04-03T09:15:19;7.40;78.20
40960;DHT22;27842;52.272;8.052;2023-04-03T09:18:18;7.50;78.30
40960;DHT22;27842;52.272;8.052;2023-04-03T09:23:45;7.70;77.60
40960;DHT22;27842;52.272;8.052;2023-04-03T09:28:52;7.80;76.50
40960;DHT22;27842;52.272;8.052;2023-04-03T09:31:22;7.70;77.10
40960;DHT22;27842;52.272;8.052;2023-04-03T09:34:06;7.80;76.50
40960;DHT22;27842;52.272;8.052;2023-04-03T09:36:44;7.80;76.60
40960;DHT22;27842;52.272;8.052;2023-04-03T09:39:58;7.90;76.00
40960;DHT22;27842;52.272;8.052;2023-04-03T09:42:01;8.00;75.60
40960;DHT22;27842;52.272;8.052;2023-04-03T09:44:38;8.00;75.60
40960;DHT22;27842;52.272;8.052;2023-04-03T09:47:27;8.10;75.30
40960;DHT22;27842;52.272;8.052;2023-04-03T09:52:38;8.10;75.00
40960;DHT22;27842;52.272;8.052;2023-04-03T09:55:24;8.10;74.30
40960;DHT22;27842;52.272;8.052;2023-04-03T09:58:02;8.20;73.60
40960;DHT22;27842;52.272;8.052;2023-04-03T10:00:35;8.10;73.50
40960;DHT22;27842;52.272;8.052;2023-04-03T10:03:02;8.10;74.20
40960;DHT22;27842;52.272;8.052;2023-04-03T10:05:38;8.20;74.60
40960;DHT22;27842;52.272;8.052;2023-04-03T10:10:39;8.20;74.60
40960;DHT22;27842;52.272;8.052;2023-04-03T10:13:19;8.20;74.80
40960;DHT22;27842;52.272;8.052;2023-04-03T10:21:40;8.50;74.30
40960;DHT22;27842;52.272;8.052;2023-04-03T10:26:58;8.50;74.40
40960;DHT22;27842;52.272;8.052;2023-04-03T10:32:54;8.40;73.90
40960;DHT22;27842;52.272;8.052;2023-04-03T10:38:16;8.50;72.10
40960;DHT22;27842;52.272;8.052;2023-04-03T10:41:04;8.50;71.70
40960;DHT22;27842;52.272;8.052;2023-04-03T10:46:48;8.40;72.60
40960;DHT22;27842;52.272;8.052;2023-04-03T10:54:55;8.70;70.80
40960;DHT22;27842;52.272;8.052;2023-04-03T10:57:23;8.70;71.00
40960;DHT22;27842;52.272;8.052;2023-04-03T11:00:03;8.70;70.40
40960;DHT22;27842;52.272;8.052;2023-04-03T11:02:57;8.80;69.90
40960;DHT22;27842;52.272;8.052;2023-04-03T11:05:36;8.90;67.70
40960;DHT22;27842;52.272;8.052;2023-04-03T11:08:53;8.90;66.60
40960;DHT22;27842;52.272;8.052;2023-04-03T11:11:00;8.90;67.20
40960;DHT22;27842;52.272;8.052;2023-04-03T11:14:19;8.70;68.40
40960;DHT22;27842;52.272;8.052;2023-04-03T11:16:50;8.60;68.20
40960;DHT22;27842;52.272;8.052;2023-04-03T11:19:22;8.60;68.20
40960;DHT22;27842;52.272;8.052;2023-04-03T11:21:57;8.50;68.30
40960;DHT22;27842;52.272;8.052;2023-04-03T11:24:27;8.50;68.10
40960;DHT22;27842;52.272;8.052;2023-04-03T11:26:55;8.40;68.50
40960;DHT22;27842;52.272;8.052;2023-04-03T11:29:29;8.40;68.20
40960;DHT22;27842;52.272;8.052;2023-04-03T11:32:35;8.40;68.30
40960;DHT22;27842;52.272;8.052;2023-04-03T11:35:06;8.30;68.70
40960;DHT22;27842;52.272;8.052;2023-04-03T11:37:41;8.30;68.90
40960;DHT22;27842;52.272;8.052;2023-04-03T11:42:55;8.40;68.40
40960;DHT22;27842;52.272;8.052;2023-04-03T11:45:33;8.30;69.30
40960;DHT22;27842;52.272;8.052;2023-04-03T12:08:47;8.50;70.70
40960;DHT22;27842;52.272;8.052;2023-04-03T12:22:13;9.30;66.90
40960;DHT22;27842;52.272;8.052;2023-04-03T12:24:44;9.40;67.20
40960;DHT22;27842;52.272;8.052;2023-04-03T12:27:32;9.60;67.20
40960;DHT22;27842;52.272;8.052;2023-04-03T12:30:17;9.70;65.50
40960;DHT22;27842;52.272;8.052;2023-04-03T12:33:13;9.90;66.30
40960;DHT22;27842;52.272;8.052;2023-04-03T12:38:49;9.90;65.80
40960;DHT22;27842;52.272;8.052;2023-04-03T12:46:50;9.60;67.10
40960;DHT22;27842;52.272;8.052;2023-04-03T12:49:35;9.60;66.80
40960;DHT22;27842;52.272;8.052;2023-04-03T12:52:26;9.50;64.50
40960;DHT22;27842;52.272;8.052;2023-04-03T12:54:55;9.60;66.40
40960;DHT22;27842;52.272;8.052;2023-04-03T12:57:24;9.50;66.50
40960;DHT22;27842;52.272;8.052;2023-04-03T12:59:51;9.50;65.90
40960;DHT22;27842;52.272;8.052;2023-04-03T13:02:29;9.40;66.50
40960;DHT22;27842;52.272;8.052;2023-04-03T13:04:58;9.40;66.60
40960;DHT22;27842;52.272;8.052;2023-04-03T13:07:30;9.30;66.80
40960;DHT22;27842;52.272;8.052;2023-04-03T13:10:19;9.20;67.10
40960;DHT22;27842;52.272;8.052;2023-04-03T13:12:50;9.20;67.30
40960;DHT22;27842;52.272;8.052;2023-04-03T13:15:28;9.20;65.70
40960;DHT22;27842;52.272;8.052;2023-04-03T13:18:00;9.10;66.20
40960;DHT22;27842;52.272;8.052;2023-04-03T13:20:28;9.10;66.80
40960;DHT22;27842;52.272;8.052;2023-04-03T13:23:04;9.10;66.60
40960;DHT22;27842;52.272;8.052;2023-04-03T13:25:33;9.00;67.00
40960;DHT22;27842;52.272;8.052;2023-04-03T13:28:03;9.00;67.30
40960;DHT22;27842;52.272;8.052;2023-04-03T13:30:35;9.10;67.10
40960;DHT22;27842;52.272;8.052;2023-04-03T13:33:05;9.00;67.30
40960;DHT22;27842;52.272;8.052;2023-04-03T13:35:38;9.00;67.70
40960;DHT22;27842;52.272;8.052;2023-04-03T13:38:25;9.00;67.70
40960;DHT22;27842;52.272;8.052;2023-04-03T13:40:54;9.10;66.80
40960;DHT22;27842;52.272;8.052;2023-04-03T13:43:26;9.40;66.40
40960;DHT22;27842;52.272;8.052;2023-04-03T13:45:59;9.60;66.30
40960;DHT22;27842;52.272;8.052;2023-04-03T13:48:26;9.80;65.40
40960;DHT22;27842;52.272;8.052;2023-04-03T13:51:02;10.00;65.40
40960;DHT22;27842;52.272;8.052;2023-04-03T13:53:30;10.20;65.20
40960;DHT22;27842;52.272;8.052;2023-04-03T13:55:58;10.20;64.60
40960;DHT22;27842;52.272;8.052;2023-04-03T13:58:27;10.10;65.20
40960;DHT22;27842;52.272;8.052;2023-04-03T14:01:09;10.10;65.30
40960;DHT22;27842;52.272;8.052;2023-04-03T14:03:55;10.00;64.80
40960;DHT22;27842;52.272;8.052;2023-04-03T14:06:22;9.90;64.50
40960;DHT22;27842;52.272;8.052;2023-04-03T14:08:47;9.90;65.00
40960;DHT22;27842;52.272;8.052;2023-04-03T14:11:18;10.10;63.70
40960;DHT22;27842;52.272;8.052;2023-04-03T14:13:46;10.30;63.60
40960;DHT22;27842;52.272;8.052;2023-04-03T14:16:14;10.50;63.20
40960;DHT22;27842;52.272;8.052;2023-04-03T14:18:42;10.60;62.80
40960;DHT22;27842;52.272;8.052;2023-04-03T14:21:11;10.80;63.10
40960;DHT22;27842;52.272;8.052;2023-04-03T14:23:37;11.10;62.10
40960;DHT22;27842;52.272;8.052;2023-04-03T14:26:08;11.30;61.60
40960;DHT22;27842;52.272;8.052;2023-04-03T14:28:35;11.40;61.70
40960;DHT22;27842;52.272;8.052;2023-04-03T14:31:01;11.40;61.20
40960;DHT22;27842;52.272;8.052;2023-04-03T14:33:27;11.40;59.90
40960;DHT22;27842;52.272;8.052;2023-04-03T14:35:56;11.30;59.50
40960;DHT22;27842;52.272;8.052;2023-04-03T14:38:25;11.10;60.20
40960;DHT22;27842;52.272;8.052;2023-04-03T14:40:52;10.80;60.10
40960;DHT22;27842;52.272;8.052;2023-04-03T14:43:19;10.80;61.60
40960;DHT22;27842;52.272;8.052;2023-04-03T14:45:46;10.90;61.80
40960;DHT22;27842;52.272;8.052;2023-04-03T14:48:24;10.80;61.40
40960;DHT22;27842;52.272;8.052;2023-04-03T14:50:51;10.70;60.90
40960;DHT22;27842;52.272;8.052;2023-04-03T14:53:18;10.60;60.50
40960;DHT22;27842;52.272;8.052;2023-04-03T14:55:48;10.40;61.50
40960;DHT22;27842;52.272;8.052;2023-04-03T14:58:16;10.20;61.40
40960;DHT22;27842;52.272;8.052;2023-04-03T15:00:44;10.10;61.70
40960;DHT22;27842;52.272;8.052;2023-04-03T15:03:13;10.00;62.10
40960;DHT22;27842;52.272;8.052;2023-04-03T15:05:40;10.00;62.20
40960;DHT22;27842;52.272;8.052;2023-04-03T15:08:25;9.90;62.20
40960;DHT22;27842;52.272;8.052;2023-04-03T15:10:51;9.90;61.80
40960;DHT22;27842;52.272;8.052;2023-04-03T15:13:22;9.80;62.30
40960;DHT22;27842;52.272;8.052;2023-04-03T15:15:48;9.70;62.50
40960;DHT22;27842;52.272;8.052;2023-04-03T15:18:24;9.70;62.10
40960;DHT22;27842;52.272;8.052;2023-04-03T15:20:52;9.80;61.60
40960;DHT22;27842;52.272;8.052;2023-04-03T15:23:18;9.70;62.20
40960;DHT22;27842;52.272;8.052;2023-04-03T15:25:46;9.60;62.90
40960;DHT22;27842;52.272;8.052;2023-04-03T15:28:22;9.50;63.40
40960;DHT22;27842;52.272;8.052;2023-04-03T15:30:48;9.60;63.00
40960;DHT22;27842;52.272;8.052;2023-04-03T15:33:13;9.60;63.10
40960;DHT22;27842;52.272;8.052;2023-04-03T15:35:41;9.60;63.00
40960;DHT22;27842;52.272;8.052;2023-04-03T15:38:06;9.60;63.10
40960;DHT22;27842;52.272;8.052;2023-04-03T15:40:32;9.60;62.70
40960;DHT22;27842;52.272;8.052;2023-04-03T15:42:58;9.50;63.10
40960;DHT22;27842;52.272;8.052;2023-04-03T15:45:23;9.60;62.80
40960;DHT22;27842;52.272;8.052;2023-04-03T15:47:50;9.60;61.70
40960;DHT22;27842;52.272;8.052;2023-04-03T15:50:16;9.50;61.80
40960;DHT22;27842;52.272;8.052;2023-04-03T15:52:42;9.40;62.10
40960;DHT22;27842;52.272;8.052;2023-04-03T15:55:08;9.40;62.00
40960;DHT22;27842;52.272;8.052;2023-04-03T15:57:34;9.30;62.30
40960;DHT22;27842;52.272;8.052;2023-04-03T16:00:00;9.30;62.50
40960;DHT22;27842;52.272;8.052;2023-04-03T16:02:25;9.20;62.50
40960;DHT22;27842;52.272;8.052;2023-04-03T16:04:54;9.30;61.70
40960;DHT22;27842;52.272;8.052;2023-04-03T16:07:19;9.20;61.90
40960;DHT22;27842;52.272;8.052;2023-04-03T16:09:45;9.10;62.20
40960;DHT22;27842;52.272;8.052;2023-04-03T16:12:11;9.20;62.10
40960;DHT22;27842;52.272;8.052;2023-04-03T16:14:36;9.10;62.70
40960;DHT22;27842;52.272;8.052;2023-04-03T16:17:02;9.20;62.10
40960;DHT22;27842;52.272;8.052;2023-04-03T16:19:29;9.20;62.30
40960;DHT22;27842;52.272;8.052;2023-04-03T16:21:55;9.20;62.50
40960;DHT22;27842;52.272;8.052;2023-04-03T16:24:21;9.10;62.20
40960;DHT22;27842;52.272;8.052;2023-04-03T16:26:46;9.10;62.50
40960;DHT22;27842;52.272;8.052;2023-04-03T16:29:12;9.20;62.40
40960;DHT22;27842;52.272;8.052;2023-04-03T16:31:38;9.20;61.80
40960;DHT22;27842;52.272;8.052;2023-04-03T16:34:03;9.20;61.90
40960;DHT22;27842;52.272;8.052;2023-04-03T16:36:29;9.20;61.80
40960;DHT22;27842;52.272;8.052;2023-04-03T16:38:55;9.10;62.40
40960;DHT22;27842;52.272;8.052;2023-04-03T16:41:20;9.10;62.60
40960;DHT22;27842;52.272;8.052;2023-04-03T16:43:46;9.00;62.90
40960;DHT22;27842;52.272;8.052;2023-04-03T16:46:11;9.00;62.40
40960;DHT22;27842;52.272;8.052;2023-04-03T16:48:40;9.00;63.20
40960;DHT22;27842;52.272;8.052;2023-04-03T16:51:06;9.00;63.10
40960;DHT22;27842;52.272;8.052;2023-04-03T16:53:31;9.00;62.70
40960;DHT22;27842;52.272;8.052;2023-04-03T16:55:58;9.00;62.90
40960;DHT22;27842;52.272;8.052;2023-04-03T16:58:24;8.90;63.40
40960;DHT22;27842;52.272;8.052;2023-04-03T17:00:50;8.90;63.50
40960;DHT22;27842;52.272;8.052;2023-04-03T17:03:15;8.90;63.60
40960;DHT22;27842;52.272;8.052;2023-04-03T17:05:41;8.90;63.60
40960;DHT22;27842;52.272;8.052;2023-04-03T17:08:06;9.00;63.20
40960;DHT22;27842;52.272;8.052;2023-04-03T17:10:32;9.00;63.40
40960;DHT22;27842;52.272;8.052;2023-04-03T17:13:00;9.00;62.70
40960;DHT22;27842;52.272;8.052;2023-04-03T17:15:25;9.00;62.70
40960;DHT22;27842;52.272;8.052;2023-04-03T17:17:52;8.90;63.00
40960;DHT22;27842;52.272;8.052;2023-04-03T17:20:18;8.90;63.20
40960;DHT22;27842;52.272;8.052;2023-04-03T17:22:44;8.90;63.50
40960;DHT22;27842;52.272;8.052;2023-04-03T17:25:10;8.90;63.60
40960;DHT22;27842;52.272;8.052;2023-04-03T17:27:36;8.90;63.70
40960;DHT22;27842;52.272;8.052;2023-04-03T17:30:03;9.00;63.60
40960;DHT22;27842;52.272;8.052;2023-04-03T17:32:29;8.90;63.50